sensor_id;sensor_type;location;lat;lon;timestamp;pressure;altitude;pressure_sealevel;temperature;humidity
62697;BME280;48761;42.680;23.312;2023-04-22T00:01:29;94511.38;;;12.58;63.06
62697;BME280;48761;42.680;23.312;2023-04-22T00:03:55;94504.34;;;12.57;62.53
62697;BME280;48761;42.680;23.312;2023-04-22T00:06:21;94492.50;;;12.50;62.08
62697;BME280;48761;42.680;23.312;2023-04-22T00:08:47;94501.53;;;12.37;62.57
62697;BME280;48761;42.680;23.312;2023-04-22T00:11:13;94492.75;;;12.25;62.86
62697;BME280;48761;42.680;23.312;2023-04-22T00:13:39;94505.91;;;12.38;62.78
62697;BME280;48761;42.680;23.312;2023-04-22T00:16:05;94508.69;;;12.37;62.88
62697;BME280;48761;42.680;23.312;2023-04-22T00:18:34;94499.72;;;12.38;62.93
62697;BME280;48761;42.680;23.312;2023-04-22T00:20:59;94507.47;;;12.41;62.99
62697;BME280;48761;42.680;23.312;2023-04-22T00:23:25;94511.06;;;12.18;63.92
62697;BME280;48761;42.680;23.312;2023-04-22T00:25:51;94501.97;;;12.09;64.09
62697;BME280;48761;42.680;23.312;2023-04-22T00:28:17;94471.25;;;11.94;64.56
62697;BME280;48761;42.680;23.312;2023-04-22T00:30:43;94490.72;;;12.06;64.13
62697;BME280;48761;42.680;23.312;2023-04-22T00:33:09;94514.56;;;12.19;64.27
62697;BME280;48761;42.680;23.312;2023-04-22T00:35:35;94507.88;;;12.25;64.08
62697;BME280;48761;42.680;23.312;2023-04-22T00:38:01;94507.41;;;12.19;64.17
62697;BME280;48761;42.680;23.312;2023-04-22T00:40:27;94502.31;;;12.16;64.43
62697;BME280;48761;42.680;23.312;2023-04-22T00:42:53;94513.47;;;12.10;64.56
62697;BME280;48761;42.680;23.312;2023-04-22T00:45:20;94513.63;;;11.97;64.90
62697;BME280;48761;42.680;23.312;2023-04-22T00:47:46;94510.00;;;11.98;64.66
62697;BME280;48761;42.680;23.312;2023-04-22T00:50:13;94513.97;;;12.04;64.30
62697;BME280;48761;42.680;23.312;2023-04-22T00:52:39;94520.03;;;12.06;64.19
62697;BME280;48761;42.680;23.312;2023-04-22T00:55:05;94519.03;;;12.07;64.05
62697;BME280;48761;42.680;23.312;2023-04-22T00:57:31;94525.59;;;12.03;64.06
62697;BME280;48761;42.680;23.312;2023-04-22T00:59:58;94512.06;;;11.94;64.10
62697;BME280;48761;42.680;23.312;2023-04-22T01:02:24;94516.16;;;11.98;64.14
62697;BME280;48761;42.680;23.312;2023-04-22T01:04:51;94523.19;;;11.99;64.08
62697;BME280;48761;42.680;23.312;2023-04-22T01:07:17;94507.34;;;11.86;64.29
62697;BME280;48761;42.680;23.312;2023-04-22T01:09:43;94503.63;;;11.77;64.40
62697;BME280;48761;42.680;23.312;2023-04-22T01:12:09;94521.75;;;11.84;64.67
62697;BME280;48761;42.680;23.312;2023-04-22T01:14:35;94525.88;;;11.88;64.64
62697;BME280;48761;42.680;23.312;2023-04-22T01:17:02;94524.66;;;11.81;64.79
62697;BME280;48761;42.680;23.312;2023-04-22T01:19:28;94534.50;;;11.80;64.85
62697;BME280;48761;42.680;23.312;2023-04-22T01:21:54;94525.66;;;11.68;65.10
62697;BME280;48761;42.680;23.312;2023-04-22T01:24:20;94528.06;;;11.71;65.16
62697;BME280;48761;42.680;23.312;2023-04-22T01:26:47;94530.72;;;11.71;65.10
62697;BME280;48761;42.680;23.312;2023-04-22T01:29:14;94529.78;;;11.72;65.22
62697;BME280;48761;42.680;23.312;2023-04-22T01:31:40;94522.50;;;11.63;65.09
62697;BME280;48761;42.680;23.312;2023-04-22T01:34:06;94533.75;;;11.66;65.27
62697;BME280;48761;42.680;23.312;2023-04-22T01:36:32;94528.81;;;11.62;65.32
62697;BME280;48761;42.680;23.312;2023-04-22T01:38:59;94520.09;;;11.60;65.16
62697;BME280;48761;42.680;23.312;2023-04-22T01:41:25;94515.50;;;11.62;65.10
62697;BME280;48761;42.680;23.312;2023-04-22T01:43:52;94518.41;;;11.70;64.88
62697;BME280;48761;42.680;23.312;2023-04-22T01:46:18;94515.25;;;11.65;64.88
62697;BME280;48761;42.680;23.312;2023-04-22T01:48:44;94514.88;;;11.58;65.07
62697;BME280;48761;42.680;23.312;2023-04-22T01:51:10;94520.09;;;11.60;65.05
62697;BME280;48761;42.680;23.312;2023-04-22T01:53:36;94514.66;;;11.38;65.72
62697;BME280;48761;42.680;23.312;2023-04-22T01:56:02;94515.50;;;11.50;65.57
62697;BME280;48761;42.680;23.312;2023-04-22T01:58:28;94516.22;;;11.41;65.82
62697;BME280;48761;42.680;23.312;2023-04-22T02:00:54;94519.13;;;11.49;65.71
62697;BME280;48761;42.680;23.312;2023-04-22T02:03:20;94523.75;;;11.47;65.80
62697;BME280;48761;42.680;23.312;2023-04-22T02:05:46;94485.75;;;11.34;65.94
62697;BME280;48761;42.680;23.312;2023-04-22T02:08:12;94512.59;;;11.53;65.92
62697;BME280;48761;42.680;23.312;2023-04-22T02:10:38;94508.25;;;11.52;65.95
62697;BME280;48761;42.680;23.312;2023-04-22T02:13:04;94526.63;;;11.55;66.40
62697;BME280;48761;42.680;23.312;2023-04-22T02:15:30;94523.25;;;11.53;66.44
62697;BME280;48761;42.680;23.312;2023-04-22T02:17:56;94512.09;;;11.25;67.37
62697;BME280;48761;42.680;23.312;2023-04-22T02:20:21;94524.34;;;11.16;67.56
62697;BME280;48761;42.680;23.312;2023-04-22T02:22:47;94524.47;;;11.15;67.79
62697;BME280;48761;42.680;23.312;2023-04-22T02:25:13;94508.84;;;11.21;67.34
62697;BME280;48761;42.680;23.312;2023-04-22T02:27:39;94521.91;;;11.36;67.62
62697;BME280;48761;42.680;23.312;2023-04-22T02:30:06;94514.06;;;11.12;67.25
62697;BME280;48761;42.680;23.312;2023-04-22T02:32:32;94518.97;;;11.05;67.00
62697;BME280;48761;42.680;23.312;2023-04-22T02:34:58;94524.56;;;11.02;67.14
62697;BME280;48761;42.680;23.312;2023-04-22T02:37:23;94522.56;;;10.81;67.33
62697;BME280;48761;42.680;23.312;2023-04-22T02:39:49;94533.00;;;10.95;67.49
62697;BME280;48761;42.680;23.312;2023-04-22T02:42:15;94504.09;;;10.91;67.10
62697;BME280;48761;42.680;23.312;2023-04-22T02:44:41;94529.28;;;11.09;66.91
62697;BME280;48761;42.680;23.312;2023-04-22T02:47:08;94524.69;;;11.23;66.33
62697;BME280;48761;42.680;23.312;2023-04-22T02:49:33;94530.72;;;11.25;65.89
62697;BME280;48761;42.680;23.312;2023-04-22T02:51:59;94533.41;;;11.37;65.75
62697;BME280;48761;42.680;23.312;2023-04-22T02:54:25;94526.63;;;11.32;65.45
62697;BME280;48761;42.680;23.312;2023-04-22T02:56:51;94532.19;;;11.41;65.16
62697;BME280;48761;42.680;23.312;2023-04-22T02:59:17;94526.63;;;11.32;65.24
62697;BME280;48761;42.680;23.312;2023-04-22T03:01:43;94532.69;;;11.46;65.08
62697;BME280;48761;42.680;23.312;2023-04-22T03:04:09;94524.22;;;11.41;64.87
62697;BME280;48761;42.680;23.312;2023-04-22T03:06:35;94533.16;;;11.51;64.84
62697;BME280;48761;42.680;23.312;2023-04-22T03:09:01;94536.44;;;11.55;64.80
62697;BME280;48761;42.680;23.312;2023-04-22T03:11:27;94501.13;;;11.30;64.87
62697;BME280;48761;42.680;23.312;2023-04-22T03:13:53;94527.00;;;11.39;65.21
62697;BME280;48761;42.680;23.312;2023-04-22T03:16:22;94546.63;;;11.50;65.00
62697;BME280;48761;42.680;23.312;2023-04-22T03:18:48;94537.03;;;11.36;65.43
62697;BME280;48761;42.680;23.312;2023-04-22T03:21:14;94534.00;;;11.40;65.35
62697;BME280;48761;42.680;23.312;2023-04-22T03:23:40;94526.38;;;11.36;65.41
62697;BME280;48761;42.680;23.312;2023-04-22T03:26:06;94538.97;;;11.34;65.74
62697;BME280;48761;42.680;23.312;2023-04-22T03:28:32;94534.50;;;11.34;65.81
62697;BME280;48761;42.680;23.312;2023-04-22T03:30:58;94540.19;;;11.29;65.93
62697;BME280;48761;42.680;23.312;2023-04-22T03:33:24;94544.16;;;11.24;66.15
62697;BME280;48761;42.680;23.312;2023-04-22T03:35:50;94552.78;;;11.27;66.32
62697;BME280;48761;42.680;23.312;2023-04-22T03:38:16;94548.63;;;11.23;66.28
62697;BME280;48761;42.680;23.312;2023-04-22T03:40:42;94561.13;;;11.34;66.14
62697;BME280;48761;42.680;23.312;2023-04-22T03:43:08;94554.19;;;11.20;66.42
62697;BME280;48761;42.680;23.312;2023-04-22T03:45:34;94550.94;;;11.28;66.18
62697;BME280;48761;42.680;23.312;2023-04-22T03:48:00;94546.97;;;11.22;66.23
62697;BME280;48761;42.680;23.312;2023-04-22T03:50:26;94545.25;;;11.21;66.06
62697;BME280;48761;42.680;23.312;2023-04-22T03:52:51;94565.00;;;11.30;66.07
62697;BME280;48761;42.680;23.312;2023-04-22T03:55:17;94533.03;;;11.07;66.11
62697;BME280;48761;42.680;23.312;2023-04-22T03:57:43;94523.44;;;10.93;66.46
62697;BME280;48761;42.680;23.312;2023-04-22T04:00:10;94566.78;;;11.29;66.29
62697;BME280;48761;42.680;23.312;2023-04-22T04:02:36;94555.91;;;11.21;66.51
62697;BME280;48761;42.680;23.312;2023-04-22T04:05:02;94566.78;;;11.29;66.29
62697;BME280;48761;42.680;23.312;2023-04-22T04:07:27;94575.50;;;11.43;65.77
62697;BME280;48761;42.680;23.312;2023-04-22T04:09:53;94573.22;;;11.50;66.31
62697;BME280;48761;42.680;23.312;2023-04-22T04:12:19;94581.56;;;11.57;66.61
62697;BME280;48761;42.680;23.312;2023-04-22T04:14:45;94578.19;;;11.54;66.94
62697;BME280;48761;42.680;23.312;2023-04-22T04:17:11;94576.59;;;11.63;67.61
62697;BME280;48761;42.680;23.312;2023-04-22T04:19:37;94573.94;;;11.75;67.21
62697;BME280;48761;42.680;23.312;2023-04-22T04:22:03;94575.03;;;11.95;66.56
62697;BME280;48761;42.680;23.312;2023-04-22T04:24:29;94560.94;;;12.16;65.61
62697;BME280;48761;42.680;23.312;2023-04-22T04:26:55;94564.53;;;12.38;65.08
62697;BME280;48761;42.680;23.312;2023-04-22T04:29:21;94583.47;;;12.68;64.36
62697;BME280;48761;42.680;23.312;2023-04-22T04:31:47;94587.84;;;12.91;63.32
62697;BME280;48761;42.680;23.312;2023-04-22T04:34:12;94590.72;;;13.20;62.45
62697;BME280;48761;42.680;23.312;2023-04-22T04:36:38;94586.44;;;13.29;61.76
62697;BME280;48761;42.680;23.312;2023-04-22T04:39:05;94587.50;;;13.48;60.85
62697;BME280;48761;42.680;23.312;2023-04-22T04:41:31;94595.59;;;13.89;60.03
62697;BME280;48761;42.680;23.312;2023-04-22T04:43:57;94588.81;;;13.85;58.84
62697;BME280;48761;42.680;23.312;2023-04-22T04:46:23;94593.88;;;14.30;58.11
62697;BME280;48761;42.680;23.312;2023-04-22T04:48:48;94607.03;;;14.63;56.52
62697;BME280;48761;42.680;23.312;2023-04-22T04:51:14;94606.44;;;14.39;56.54
62697;BME280;48761;42.680;23.312;2023-04-22T04:53:40;94592.97;;;14.71;56.02
62697;BME280;48761;42.680;23.312;2023-04-22T04:56:06;94592.16;;;14.90;55.15
62697;BME280;48761;42.680;23.312;2023-04-22T04:58:32;94606.19;;;15.22;54.31
62697;BME280;48761;42.680;23.312;2023-04-22T05:00:58;94583.69;;;15.05;53.65
62697;BME280;48761;42.680;23.312;2023-04-22T05:03:24;94605.63;;;14.59;55.73
62697;BME280;48761;42.680;23.312;2023-04-22T05:05:49;94614.47;;;14.59;54.87
62697;BME280;48761;42.680;23.312;2023-04-22T05:08:15;94608.78;;;15.13;54.82
62697;BME280;48761;42.680;23.312;2023-04-22T05:10:41;94622.25;;;14.72;54.41
62697;BME280;48761;42.680;23.312;2023-04-22T05:13:07;94617.53;;;13.62;57.69
62697;BME280;48761;42.680;23.312;2023-04-22T05:15:33;94620.88;;;14.27;56.40
62697;BME280;48761;42.680;23.312;2023-04-22T05:17:59;94626.63;;;14.12;56.15
62697;BME280;48761;42.680;23.312;2023-04-22T05:20:25;94586.66;;;12.83;58.78
62697;BME280;48761;42.680;23.312;2023-04-22T05:22:51;94623.91;;;13.28;58.27
62697;BME280;48761;42.680;23.312;2023-04-22T05:25:17;94619.06;;;13.86;56.91
62697;BME280;48761;42.680;23.312;2023-04-22T05:27:43;94628.31;;;14.84;55.25
62697;BME280;48761;42.680;23.312;2023-04-22T05:30:09;94590.41;;;14.79;54.36
62697;BME280;48761;42.680;23.312;2023-04-22T05:32:35;94628.22;;;14.86;53.98
62697;BME280;48761;42.680;23.312;2023-04-22T05:35:01;94630.44;;;15.30;53.80
62697;BME280;48761;42.680;23.312;2023-04-22T05:37:27;94626.78;;;14.92;53.48
62697;BME280;48761;42.680;23.312;2023-04-22T05:39:53;94631.16;;;14.93;53.38
62697;BME280;48761;42.680;23.312;2023-04-22T05:42:19;94593.50;;;14.74;54.26
62697;BME280;48761;42.680;23.312;2023-04-22T05:44:45;94617.13;;;14.39;54.60
62697;BME280;48761;42.680;23.312;2023-04-22T05:47:11;94600.59;;;15.05;53.69
62697;BME280;48761;42.680;23.312;2023-04-22T05:49:38;94627.00;;;15.58;52.49
62697;BME280;48761;42.680;23.312;2023-04-22T05:52:03;94614.88;;;15.64;51.53
62697;BME280;48761;42.680;23.312;2023-04-22T05:54:29;94611.13;;;16.33;50.20
62697;BME280;48761;42.680;23.312;2023-04-22T05:56:55;94624.03;;;16.47;49.75
62697;BME280;48761;42.680;23.312;2023-04-22T05:59:21;94616.63;;;16.31;49.96
62697;BME280;48761;42.680;23.312;2023-04-22T06:01:47;94625.75;;;16.00;50.28
62697;BME280;48761;42.680;23.312;2023-04-22T06:04:13;94615.22;;;15.31;51.71
62697;BME280;48761;42.680;23.312;2023-04-22T06:06:39;94626.47;;;15.54;51.88
62697;BME280;48761;42.680;23.312;2023-04-22T06:09:05;94619.06;;;15.76;52.00
62697;BME280;48761;42.680;23.312;2023-04-22T06:11:31;94616.47;;;16.98;50.00
62697;BME280;48761;42.680;23.312;2023-04-22T06:13:56;94615.19;;;17.92;47.48
62697;BME280;48761;42.680;23.312;2023-04-22T06:16:22;94620.28;;;18.90;45.61
62697;BME280;48761;42.680;23.312;2023-04-22T06:18:48;94618.38;;;18.66;44.45
62697;BME280;48761;42.680;23.312;2023-04-22T06:21:14;94627.44;;;18.56;44.80
62697;BME280;48761;42.680;23.312;2023-04-22T06:23:41;94628.03;;;18.85;44.64
62697;BME280;48761;42.680;23.312;2023-04-22T06:26:07;94620.78;;;18.77;44.35
62697;BME280;48761;42.680;23.312;2023-04-22T06:28:33;94628.28;;;18.57;44.95
62697;BME280;48761;42.680;23.312;2023-04-22T06:31:00;94633.84;;;18.55;44.64
62697;BME280;48761;42.680;23.312;2023-04-22T06:33:26;94632.25;;;19.04;43.67
62697;BME280;48761;42.680;23.312;2023-04-22T06:35:52;94628.44;;;19.41;42.87
62697;BME280;48761;42.680;23.312;2023-04-22T06:38:18;94636.09;;;17.53;46.50
62697;BME280;48761;42.680;23.312;2023-04-22T06:40:44;94631.47;;;18.17;45.39
62697;BME280;48761;42.680;23.312;2023-04-22T06:43:10;94636.97;;;18.42;44.57
62697;BME280;48761;42.680;23.312;2023-04-22T06:45:36;94639.53;;;17.19;47.26
62697;BME280;48761;42.680;23.312;2023-04-22T06:48:02;94624.91;;;17.40;47.05
62697;BME280;48761;42.680;23.312;2023-04-22T06:50:28;94629.59;;;19.13;44.60
62697;BME280;48761;42.680;23.312;2023-04-22T06:52:54;94632.34;;;18.69;44.34
62697;BME280;48761;42.680;23.312;2023-04-22T06:55:20;94616.97;;;19.22;43.45
62697;BME280;48761;42.680;23.312;2023-04-22T06:57:45;94644.91;;;19.12;43.82
62697;BME280;48761;42.680;23.312;2023-04-22T07:00:12;94633.78;;;19.07;42.69
62697;BME280;48761;42.680;23.312;2023-04-22T07:02:38;94635.84;;;19.47;43.26
62697;BME280;48761;42.680;23.312;2023-04-22T07:05:04;94641.75;;;19.51;43.03
62697;BME280;48761;42.680;23.312;2023-04-22T07:07:30;94622.03;;;19.50;42.98
62697;BME280;48761;42.680;23.312;2023-04-22T07:09:56;94632.72;;;18.91;43.20
62697;BME280;48761;42.680;23.312;2023-04-22T07:12:22;94634.47;;;17.61;45.91
62697;BME280;48761;42.680;23.312;2023-04-22T07:14:48;94641.56;;;17.62;46.49
62697;BME280;48761;42.680;23.312;2023-04-22T07:17:14;94633.97;;;17.39;46.33
62697;BME280;48761;42.680;23.312;2023-04-22T07:19:40;94641.06;;;18.63;44.30
62697;BME280;48761;42.680;23.312;2023-04-22T07:22:06;94638.13;;;18.13;44.66
62697;BME280;48761;42.680;23.312;2023-04-22T07:24:32;94647.41;;;17.84;45.49
62697;BME280;48761;42.680;23.312;2023-04-22T07:26:58;94640.22;;;17.66;45.71
62697;BME280;48761;42.680;23.312;2023-04-22T07:29:23;94619.22;;;18.23;45.11
62697;BME280;48761;42.680;23.312;2023-04-22T07:31:49;94629.66;;;17.46;46.15
62697;BME280;48761;42.680;23.312;2023-04-22T07:34:16;94637.75;;;17.73;46.53
62697;BME280;48761;42.680;23.312;2023-04-22T07:36:42;94640.94;;;16.95;47.55
62697;BME280;48761;42.680;23.312;2023-04-22T07:39:08;94645.53;;;19.06;43.78
62697;BME280;48761;42.680;23.312;2023-04-22T07:41:34;94640.16;;;19.06;43.22
62697;BME280;48761;42.680;23.312;2023-04-22T07:44:01;94645.13;;;18.67;44.11
62697;BME280;48761;42.680;23.312;2023-04-22T07:46:27;94649.13;;;17.93;45.00
62697;BME280;48761;42.680;23.312;2023-04-22T07:48:53;94641.19;;;17.20;46.28
62697;BME280;48761;42.680;23.312;2023-04-22T07:51:18;94631.78;;;17.61;45.44
62697;BME280;48761;42.680;23.312;2023-04-22T07:53:44;94640.75;;;17.96;44.81
62697;BME280;48761;42.680;23.312;2023-04-22T07:56:10;94638.50;;;19.89;42.30
62697;BME280;48761;42.680;23.312;2023-04-22T07:58:36;94633.50;;;19.60;41.94
62697;BME280;48761;42.680;23.312;2023-04-22T08:01:02;94629.38;;;20.07;40.64
62697;BME280;48761;42.680;23.312;2023-04-22T08:03:28;94623.88;;;19.66;40.73
62697;BME280;48761;42.680;23.312;2023-04-22T08:05:54;94614.91;;;19.82;40.01
62697;BME280;48761;42.680;23.312;2023-04-22T08:08:20;94625.81;;;20.63;38.97
62697;BME280;48761;42.680;23.312;2023-04-22T08:10:46;94609.28;;;21.22;37.84
62697;BME280;48761;42.680;23.312;2023-04-22T08:13:11;94634.94;;;20.94;38.47
62697;BME280;48761;42.680;23.312;2023-04-22T08:15:37;94627.16;;;20.67;39.04
62697;BME280;48761;42.680;23.312;2023-04-22T08:18:03;94614.69;;;20.58;39.04
62697;BME280;48761;42.680;23.312;2023-04-22T08:20:29;94616.28;;;19.78;40.43
62697;BME280;48761;42.680;23.312;2023-04-22T08:22:55;94622.16;;;20.88;38.86
62697;BME280;48761;42.680;23.312;2023-04-22T08:25:21;94613.22;;;19.90;39.59
62697;BME280;48761;42.680;23.312;2023-04-22T08:27:48;94619.00;;;19.53;40.01
62697;BME280;48761;42.680;23.312;2023-04-22T08:30:15;94614.91;;;19.07;41.40
62697;BME280;48761;42.680;23.312;2023-04-22T08:32:41;94618.63;;;18.37;41.60
62697;BME280;48761;42.680;23.312;2023-04-22T08:35:07;94613.34;;;18.63;42.13
62697;BME280;48761;42.680;23.312;2023-04-22T08:37:33;94611.00;;;18.76;41.60
62697;BME280;48761;42.680;23.312;2023-04-22T08:40:00;94595.72;;;18.93;41.59
62697;BME280;48761;42.680;23.312;2023-04-22T08:42:26;94600.84;;;19.38;40.37
62697;BME280;48761;42.680;23.312;2023-04-22T08:44:56;94606.44;;;20.11;40.82
62697;BME280;48761;42.680;23.312;2023-04-22T08:47:23;94589.63;;;19.92;41.61
62697;BME280;48761;42.680;23.312;2023-04-22T08:49:50;94593.47;;;20.55;40.33
62697;BME280;48761;42.680;23.312;2023-04-22T08:52:17;94596.34;;;20.53;38.94
62697;BME280;48761;42.680;23.312;2023-04-22T08:54:43;94593.72;;;20.68;38.70
62697;BME280;48761;42.680;23.312;2023-04-22T08:57:09;94589.25;;;20.84;42.40
62697;BME280;48761;42.680;23.312;2023-04-22T08:59:37;94586.19;;;20.87;37.15
62697;BME280;48761;42.680;23.312;2023-04-22T09:02:04;94575.31;;;21.04;38.67
62697;BME280;48761;42.680;23.312;2023-04-22T09:04:31;94560.44;;;21.00;37.69
62697;BME280;48761;42.680;23.312;2023-04-22T09:06:59;94589.72;;;20.64;37.62
62697;BME280;48761;42.680;23.312;2023-04-22T09:09:27;94585.00;;;20.26;38.35
62697;BME280;48761;42.680;23.312;2023-04-22T09:11:54;94586.72;;;20.19;39.21
62697;BME280;48761;42.680;23.312;2023-04-22T09:14:20;94581.06;;;19.80;39.49
62697;BME280;48761;42.680;23.312;2023-04-22T09:16:47;94578.53;;;19.87;38.98
62697;BME280;48761;42.680;23.312;2023-04-22T09:19:14;94583.47;;;20.32;38.29
62697;BME280;48761;42.680;23.312;2023-04-22T09:21:40;94574.63;;;20.46;37.94
62697;BME280;48761;42.680;23.312;2023-04-22T09:24:07;94574.81;;;20.36;37.36
62697;BME280;48761;42.680;23.312;2023-04-22T09:26:38;94570.78;;;19.83;38.01
62697;BME280;48761;42.680;23.312;2023-04-22T09:29:04;94553.16;;;20.13;37.99
62697;BME280;48761;42.680;23.312;2023-04-22T09:31:31;94561.72;;;20.25;37.13
62697;BME280;48761;42.680;23.312;2023-04-22T09:33:59;94538.69;;;19.97;36.35
62697;BME280;48761;42.680;23.312;2023-04-22T09:36:26;94550.91;;;19.76;37.17
62697;BME280;48761;42.680;23.312;2023-04-22T09:38:54;94541.03;;;20.17;37.84
62697;BME280;48761;42.680;23.312;2023-04-22T09:41:33;94559.06;;;20.48;36.60
62697;BME280;48761;42.680;23.312;2023-04-22T09:44:02;94535.75;;;20.56;35.30
62697;BME280;48761;42.680;23.312;2023-04-22T09:46:29;94525.00;;;21.03;35.56
62697;BME280;48761;42.680;23.312;2023-04-22T09:48:56;94560.25;;;21.10;34.99
62697;BME280;48761;42.680;23.312;2023-04-22T09:51:26;94549.63;;;21.08;34.78
62697;BME280;48761;42.680;23.312;2023-04-22T09:54:00;94549.22;;;20.88;34.31
62697;BME280;48761;42.680;23.312;2023-04-22T09:56:46;94552.06;;;20.31;35.16
62697;BME280;48761;42.680;23.312;2023-04-22T09:59:35;94559.59;;;20.03;34.13
62697;BME280;48761;42.680;23.312;2023-04-22T10:02:01;94561.69;;;19.76;35.90
62697;BME280;48761;42.680;23.312;2023-04-22T10:04:27;94550.59;;;19.71;36.60
62697;BME280;48761;42.680;23.312;2023-04-22T10:06:53;94547.59;;;19.49;37.03
62697;BME280;48761;42.680;23.312;2023-04-22T10:09:21;94527.50;;;17.99;38.37
62697;BME280;48761;42.680;23.312;2023-04-22T10:11:49;94559.81;;;16.83;41.51
62697;BME280;48761;42.680;23.312;2023-04-22T10:14:16;94551.91;;;16.16;41.96
62697;BME280;48761;42.680;23.312;2023-04-22T10:16:45;94548.13;;;16.92;40.98
62697;BME280;48761;42.680;23.312;2023-04-22T10:19:15;94549.22;;;17.44;39.28
62697;BME280;48761;42.680;23.312;2023-04-22T10:21:43;94545.56;;;17.80;38.13
62697;BME280;48761;42.680;23.312;2023-04-22T10:24:18;94549.41;;;18.13;37.53
62697;BME280;48761;42.680;23.312;2023-04-22T10:26:49;94551.09;;;18.14;36.45
62697;BME280;48761;42.680;23.312;2023-04-22T10:29:17;94539.63;;;18.64;35.79
62697;BME280;48761;42.680;23.312;2023-04-22T10:31:51;94538.53;;;17.88;37.47
62697;BME280;48761;42.680;23.312;2023-04-22T10:34:18;94529.13;;;17.57;38.89
62697;BME280;48761;42.680;23.312;2023-04-22T10:37:09;94538.00;;;17.22;39.71
62697;BME280;48761;42.680;23.312;2023-04-22T10:39:35;94524.22;;;16.80;39.01
62697;BME280;48761;42.680;23.312;2023-04-22T10:44:28;94534.09;;;17.70;36.74
62697;BME280;48761;42.680;23.312;2023-04-22T10:46:56;94537.16;;;18.19;37.02
62697;BME280;48761;42.680;23.312;2023-04-22T10:49:24;94530.38;;;18.50;35.87
62697;BME280;48761;42.680;23.312;2023-04-22T10:51:52;94523.69;;;18.87;35.77
62697;BME280;48761;42.680;23.312;2023-04-22T10:57:06;94498.47;;;17.68;37.04
62697;BME280;48761;42.680;23.312;2023-04-22T10:59:40;94499.47;;;18.70;36.11
62697;BME280;48761;42.680;23.312;2023-04-22T11:02:07;94504.19;;;18.85;34.94
62697;BME280;48761;42.680;23.312;2023-04-22T11:04:34;94516.78;;;18.59;34.77
62697;BME280;48761;42.680;23.312;2023-04-22T11:09:45;94520.75;;;18.39;34.85
62697;BME280;48761;42.680;23.312;2023-04-22T11:15:11;94532.53;;;18.46;34.27
62697;BME280;48761;42.680;23.312;2023-04-22T11:17:39;94525.13;;;18.48;34.66
62697;BME280;48761;42.680;23.312;2023-04-22T11:20:07;94515.13;;;17.72;35.96
62697;BME280;48761;42.680;23.312;2023-04-22T11:22:34;94528.00;;;17.95;36.38
62697;BME280;48761;42.680;23.312;2023-04-22T11:25:01;94500.44;;;17.57;38.31
62697;BME280;48761;42.680;23.312;2023-04-22T11:27:26;94552.50;;;17.91;38.32
62697;BME280;48761;42.680;23.312;2023-04-22T11:30:04;94546.03;;;17.41;40.93
62697;BME280;48761;42.680;23.312;2023-04-22T11:32:30;94529.06;;;17.40;40.96
62697;BME280;48761;42.680;23.312;2023-04-22T11:34:56;94557.50;;;17.51;41.26
62697;BME280;48761;42.680;23.312;2023-04-22T11:37:23;94551.38;;;16.96;41.38
62697;BME280;48761;42.680;23.312;2023-04-22T11:39:49;94561.13;;;16.78;42.89
62697;BME280;48761;42.680;23.312;2023-04-22T11:42:19;94524.75;;;16.84;42.92
62697;BME280;48761;42.680;23.312;2023-04-22T11:44:45;94560.88;;;17.08;43.02
62697;BME280;48761;42.680;23.312;2023-04-22T11:47:11;94573.19;;;16.28;43.45
62697;BME280;48761;42.680;23.312;2023-04-22T11:49:37;94558.91;;;15.61;45.05
62697;BME280;48761;42.680;23.312;2023-04-22T11:52:03;94532.38;;;15.29;45.79
62697;BME280;48761;42.680;23.312;2023-04-22T11:54:36;94580.69;;;15.86;44.56
62697;BME280;48761;42.680;23.312;2023-04-22T11:57:07;94556.38;;;15.97;44.18
62697;BME280;48761;42.680;23.312;2023-04-22T11:59:34;94580.28;;;16.19;44.79
62697;BME280;48761;42.680;23.312;2023-04-22T12:02:04;94582.56;;;16.13;44.75
62697;BME280;48761;42.680;23.312;2023-04-22T12:04:40;94597.56;;;15.96;45.47
62697;BME280;48761;42.680;23.312;2023-04-22T12:07:06;94584.97;;;15.68;45.78
62697;BME280;48761;42.680;23.312;2023-04-22T12:09:33;94587.94;;;16.03;45.54
62697;BME280;48761;42.680;23.312;2023-04-22T12:11:59;94587.13;;;15.93;45.97
62697;BME280;48761;42.680;23.312;2023-04-22T12:14:32;94589.56;;;16.24;45.45
62697;BME280;48761;42.680;23.312;2023-04-22T12:16:57;94565.88;;;15.82;46.16
62697;BME280;48761;42.680;23.312;2023-04-22T12:19:25;94585.09;;;16.15;46.22
62697;BME280;48761;42.680;23.312;2023-04-22T12:21:54;94583.00;;;16.09;45.80
62697;BME280;48761;42.680;23.312;2023-04-22T12:24:26;94598.41;;;16.07;45.42
62697;BME280;48761;42.680;23.312;2023-04-22T12:26:52;94586.88;;;16.53;45.12
62697;BME280;48761;42.680;23.312;2023-04-22T12:29:30;94573.06;;;16.84;44.72
62697;BME280;48761;42.680;23.312;2023-04-22T12:31:56;94590.94;;;16.75;44.19
62697;BME280;48761;42.680;23.312;2023-04-22T12:34:22;94595.97;;;16.13;44.44
62697;BME280;48761;42.680;23.312;2023-04-22T12:36:49;94583.94;;;16.64;43.90
62697;BME280;48761;42.680;23.312;2023-04-22T12:39:14;94571.22;;;16.48;44.03
62697;BME280;48761;42.680;23.312;2023-04-22T12:41:40;94587.25;;;16.01;45.49
62697;BME280;48761;42.680;23.312;2023-04-22T12:44:06;94572.88;;;16.02;46.03
62697;BME280;48761;42.680;23.312;2023-04-22T12:46:32;94567.72;;;15.81;47.25
62697;BME280;48761;42.680;23.312;2023-04-22T12:48:59;94577.94;;;16.06;47.74
62697;BME280;48761;42.680;23.312;2023-04-22T12:51:25;94574.41;;;15.95;48.76
62697;BME280;48761;42.680;23.312;2023-04-22T12:53:51;94568.47;;;16.01;47.58
62697;BME280;48761;42.680;23.312;2023-04-22T12:56:16;94574.50;;;16.13;45.88
62697;BME280;48761;42.680;23.312;2023-04-22T12:58:43;94570.19;;;16.31;45.40